createdAt,value
2022-09-02T00:05:37.912Z,18.8
2022-09-02T00:11:19.221Z,18.8
2022-09-02T00:17:01.819Z,18.7
2022-09-02T00:22:42.800Z,18.6
2022-09-02T00:28:23.070Z,18.5
2022-09-02T00:34:04.687Z,18.4
2022-09-02T00:39:44.806Z,18.3
2022-09-02T00:45:25.370Z,18.2
2022-09-02T00:51:06.814Z,18.2
2022-09-02T00:56:47.980Z,18.1
2022-09-02T01:02:36.145Z,18.1
2022-09-02T01:08:16.266Z,18
2022-09-02T01:14:17.238Z,18
2022-09-02T01:19:57.225Z,18
2022-09-02T01:25:37.427Z,18
2022-09-02T01:31:18.230Z,17.9
2022-09-02T01:36:59.926Z,17.8
2022-09-02T01:42:40.597Z,17.8
2022-09-02T01:48:21.637Z,17.6
2022-09-02T01:54:02.066Z,17.4
2022-09-02T01:59:42.656Z,17.3
2022-09-02T02:05:23.704Z,17.3
2022-09-02T02:11:03.921Z,17.3
2022-09-02T02:16:44.212Z,17.4
2022-09-02T02:22:24.500Z,17.6
2022-09-02T02:28:04.786Z,17.5
2022-09-02T02:33:46.260Z,17.6
2022-09-02T02:39:26.512Z,17.8
2022-09-02T02:45:06.828Z,17.7
2022-09-02T02:50:47.229Z,17.8
2022-09-02T02:56:27.553Z,17.8
2022-09-02T03:02:08.108Z,17.8
2022-09-02T03:07:49.667Z,17.8
2022-09-02T03:13:29.982Z,17.8
2022-09-02T03:19:12.338Z,17.8
2022-09-02T03:24:52.584Z,17.8
2022-09-02T03:30:32.898Z,17.8
2022-09-02T03:36:13.618Z,17.8
2022-09-02T03:49:24.478Z,17.9
2022-09-02T03:55:04.837Z,17.8
2022-09-02T04:00:47.323Z,17.7
2022-09-02T04:06:28.414Z,17.7
2022-09-02T04:12:13.099Z,17.7
2022-09-02T04:17:53.499Z,17.7
2022-09-02T04:23:34.483Z,17.6
2022-09-02T04:29:14.948Z,17.5
2022-09-02T04:35:00.153Z,17.5
2022-09-02T04:40:42.932Z,17.4
2022-09-02T04:46:29.795Z,17.3
2022-09-02T04:52:16.516Z,17.3
2022-09-02T04:57:57.025Z,17.2
2022-09-02T05:03:37.905Z,17.1
2022-09-02T05:09:19.589Z,17.1
2022-09-02T05:15:00.701Z,17.1
2022-09-02T05:20:42.712Z,17.1
2022-09-02T05:26:23.703Z,17.2
2022-09-02T05:32:04.634Z,17.3
2022-09-02T05:37:45.185Z,17.5
2022-09-02T05:48:27.180Z,17.5
2022-09-02T05:54:11.838Z,17.6
2022-09-02T05:59:53.095Z,17.7
2022-09-02T06:05:34.389Z,17.9
2022-09-02T06:11:15.041Z,18.1
2022-09-02T06:16:56.235Z,18.7
2022-09-02T06:22:38.155Z,18.6
2022-09-02T06:28:18.654Z,18.8
2022-09-02T06:33:59.146Z,18.9
2022-09-02T06:39:44.043Z,19.1
2022-09-02T06:45:25.667Z,19.4
2022-09-02T06:56:08.885Z,21.7
2022-09-02T07:01:50.180Z,22.6
2022-09-02T07:07:33.308Z,23.4
2022-09-02T07:13:17.881Z,23
2022-09-02T07:19:05.610Z,24.2
2022-09-02T07:25:01.668Z,24.5
2022-09-02T07:30:41.773Z,24.4
2022-09-02T07:36:22.736Z,24.3
2022-09-02T07:42:03.684Z,24.7
2022-09-02T07:47:43.348Z,24.3
2022-09-02T07:53:24.509Z,25
2022-09-02T07:59:05.285Z,25.1
2022-09-02T08:04:45.462Z,24.6
2022-09-02T08:10:26.379Z,25.3
2022-09-02T08:16:07.126Z,26.9
2022-09-02T08:22:02.691Z,26.9
2022-09-02T08:27:43.943Z,27.1
2022-09-02T08:33:27.071Z,26.5
2022-09-02T08:39:07.567Z,25.9
2022-09-02T08:44:47.691Z,26.4
2022-09-02T08:50:38.572Z,26.9
2022-09-02T08:56:20.115Z,27.5
2022-09-02T09:02:02.710Z,27
2022-09-02T09:07:43.785Z,27.2
2022-09-02T09:13:24.307Z,28
2022-09-02T09:19:08.622Z,28.6
2022-09-02T09:24:48.948Z,28.6
2022-09-02T09:30:29.535Z,28.3
2022-09-02T09:36:10.320Z,28.8
2022-09-02T09:41:54.127Z,29.3
2022-09-02T09:47:34.927Z,29.7
2022-09-02T09:53:17.395Z,29.7
2022-09-02T09:58:58.533Z,29.7
2022-09-02T10:04:43.117Z,30
2022-09-02T10:10:24.871Z,30.1
2022-09-02T10:16:05.422Z,29.5
2022-09-02T10:21:46.553Z,29.9
2022-09-02T10:27:27.410Z,30.8
2022-09-02T10:33:07.599Z,30.7
2022-09-02T10:38:48.438Z,30.8
2022-09-02T10:44:31.330Z,30.8
2022-09-02T10:50:11.658Z,30.8
2022-09-02T10:55:51.805Z,31.1
2022-09-02T11:01:32.004Z,30.9
2022-09-02T11:07:12.442Z,31.7
2022-09-02T11:12:55.580Z,32.2
2022-09-02T11:18:36.307Z,32.3
2022-09-02T11:24:24.702Z,31.3
2022-09-02T11:30:04.805Z,31.4
2022-09-02T11:35:45.610Z,31.2
2022-09-02T11:41:36.270Z,31.6
2022-09-02T11:47:19.689Z,29.8
2022-09-02T11:52:59.700Z,29.4
2022-09-02T11:58:40.888Z,30.2
2022-09-02T12:10:45.651Z,30.3
2022-09-02T12:16:28.834Z,30.6
2022-09-02T12:22:11.649Z,31.2
2022-09-02T12:27:52.768Z,31.1
2022-09-02T12:33:33.251Z,32
2022-09-02T12:39:15.507Z,31.9
2022-09-02T12:44:56.439Z,31
2022-09-02T12:50:36.364Z,29.6
2022-09-02T12:56:16.241Z,28.7
2022-09-02T13:07:37.066Z,29.3
2022-09-02T13:13:17.590Z,29.2
2022-09-02T13:18:58.626Z,29.3
2022-09-02T13:24:39.149Z,28.9
2022-09-02T13:30:20.251Z,28.2
2022-09-02T13:36:00.473Z,28
2022-09-02T13:41:40.822Z,27.9
2022-09-02T13:47:21.618Z,31.2
2022-09-02T14:00:04.912Z,30.4
2022-09-02T14:05:47.589Z,30.9
2022-09-02T14:11:28.961Z,30.9
2022-09-02T14:17:09.350Z,31.2
2022-09-02T14:22:49.928Z,31.1
2022-09-02T14:28:31.376Z,30
2022-09-02T14:34:15.069Z,28.8
2022-09-02T14:39:55.159Z,27.9
2022-09-02T14:45:35.662Z,27.3
2022-09-02T14:51:15.838Z,26.8
2022-09-02T14:56:56.300Z,26.9
2022-09-02T15:08:03.018Z,26.4
2022-09-02T15:13:43.395Z,26.4
2022-09-02T15:19:23.572Z,26.4
2022-09-02T15:25:03.762Z,26.4
2022-09-02T15:30:43.956Z,26.2
2022-09-02T15:36:24.924Z,26.2
2022-09-02T15:42:04.835Z,26
2022-09-02T15:47:45.165Z,26
2022-09-02T15:53:25.279Z,25.9
2022-09-02T15:59:05.373Z,25.8
2022-09-02T16:04:45.486Z,25.7
2022-09-02T16:10:25.599Z,25.6
2022-09-02T16:16:05.761Z,25.5
2022-09-02T16:21:45.964Z,25.4
2022-09-02T16:27:26.091Z,25.4
2022-09-02T16:33:06.311Z,25.4
2022-09-02T16:38:47.279Z,25.3
2022-09-02T16:44:27.485Z,25.2
2022-09-02T16:50:07.839Z,25.1
2022-09-02T16:55:48.126Z,25
2022-09-02T17:01:32.253Z,24.8
2022-09-02T17:07:13.443Z,24.7
2022-09-02T17:12:55.336Z,24.6
2022-09-02T17:18:35.381Z,24.4
2022-09-02T17:24:15.667Z,24.3
2022-09-02T17:29:55.845Z,24.1
2022-09-02T17:35:36.184Z,24
2022-09-02T17:41:16.557Z,23.9
2022-09-02T17:46:56.714Z,23.6
2022-09-02T17:52:36.867Z,23.6
2022-09-02T17:58:18.007Z,23.5
2022-09-02T18:03:58.996Z,23.4
2022-09-02T18:09:39.753Z,23.2
2022-09-02T18:15:20.468Z,23
2022-09-02T18:21:00.840Z,22.9
2022-09-02T18:26:41.310Z,22.8
2022-09-02T18:32:21.844Z,22.6
2022-09-02T18:38:08.016Z,22.5
2022-09-02T18:43:48.255Z,22.4
2022-09-02T18:49:28.805Z,22.3
2022-09-02T18:55:09.107Z,22.1
2022-09-02T19:00:49.365Z,22
2022-09-02T19:06:30.538Z,21.9
2022-09-02T19:12:10.688Z,21.8
2022-09-02T19:18:09.456Z,21.7
2022-09-02T19:24:03.434Z,21.5
2022-09-02T19:29:43.401Z,21.4
2022-09-02T19:35:23.965Z,21.3
2022-09-02T19:41:04.994Z,21
2022-09-02T19:53:50.873Z,20.8
2022-09-02T19:59:31.234Z,20.6
2022-09-02T20:05:11.693Z,20.5
2022-09-02T20:10:54.996Z,20.5
2022-09-02T20:16:57.605Z,20.5
2022-09-02T20:22:43.633Z,20.3
2022-09-02T20:28:23.751Z,20
2022-09-02T20:34:04.736Z,19.8
2022-09-02T20:39:44.934Z,19.7
2022-09-02T20:45:27.180Z,19.7
2022-09-02T20:51:10.049Z,19.6
2022-09-02T20:56:50.274Z,19.5
2022-09-02T21:02:30.567Z,19.3
2022-09-02T21:08:11.645Z,19.2
2022-09-02T21:13:51.590Z,18.9
2022-09-02T21:19:32.440Z,18.9
2022-09-02T21:25:12.479Z,18.8
2022-09-02T21:30:58.939Z,18.9
2022-09-02T21:36:39.567Z,18.7
2022-09-02T21:42:19.725Z,18.5
2022-09-02T21:48:02.636Z,18.5
2022-09-02T21:53:46.050Z,18.4
2022-09-02T21:59:32.529Z,18.4
2022-09-02T22:05:12.610Z,18.1
2022-09-02T22:10:55.162Z,17.8
2022-09-02T22:16:37.286Z,17.5
2022-09-02T22:22:18.136Z,17.3
2022-09-02T22:27:58.678Z,17.1
2022-09-02T22:33:38.778Z,16.8
2022-09-02T22:39:21.273Z,16.5
2022-09-02T22:45:01.828Z,16.4
2022-09-02T22:50:41.907Z,16.2
2022-09-02T22:56:22.278Z,16.1
2022-09-02T23:02:02.694Z,15.9
2022-09-02T23:07:43.746Z,15.9
2022-09-02T23:13:23.874Z,15.8
2022-09-02T23:19:04.264Z,15.7
2022-09-02T23:24:44.921Z,15.7
2022-09-02T23:30:25.667Z,15.7
2022-09-02T23:36:10.394Z,15.7
2022-09-02T23:41:50.490Z,15.8
2022-09-02T23:47:30.650Z,15.7
2022-09-02T23:53:11.294Z,15.6
